Time;durP1;ratioP1;P1;durP2;ratioP2;P2;SDS_P1;SDS_P2;PMS_P1;PMS_P2;Temp;Humidity;BMP_temperature;BMP_pressure;BME280_temperature;BME280_humidity;BME280_pressure;Samples;Min_cycle;Max_cycle;Signal;HPM_P1;HPM_P2
2022/10/04 00:00:43;;;;;;;8.45;7.55;;;23.60;99.90;;;;;;6203854;28;83942;-65
2022/10/04 00:03:50;;;;;;;7.93;7.13;;;23.50;99.90;;;;;;6207058;28;83999;-64
2022/10/04 00:06:57;;;;;;;8.13;7.20;;;23.50;99.90;;;;;;6201118;28;83524;-64
2022/10/04 00:10:04;;;;;;;8.13;7.32;;;23.50;99.90;;;;;;6205717;28;82960;-65
2022/10/04 00:13:17;;;;;;;8.40;7.57;;;23.50;99.90;;;;;;6206534;28;84092;-65
2022/10/04 00:16:23;;;;;;;8.38;7.57;;;23.50;99.90;;;;;;6207741;28;85037;-65
2022/10/04 00:19:45;;;;;;;8.70;7.30;;;23.50;99.90;;;;;;6212162;28;82895;-65
2022/10/04 00:23:40;;;;;;;7.80;7.00;;;23.40;99.90;;;;;;6192379;28;84265;-64
2022/10/04 00:27:19;;;;;;;7.40;6.63;;;23.50;99.90;;;;;;6209514;28;84909;-65
2022/10/04 00:30:23;;;;;;;8.55;7.65;;;23.40;99.90;;;;;;6207605;28;82908;-65
2022/10/04 00:33:35;;;;;;;7.28;6.57;;;23.40;99.90;;;;;;6207913;28;82922;-65
2022/10/04 00:36:50;;;;;;;7.70;6.90;;;23.40;99.90;;;;;;6204154;28;84006;-64
2022/10/04 00:40:14;;;;;;;7.93;7.15;;;23.50;99.90;;;;;;6205366;28;83401;-65
2022/10/04 00:43:21;;;;;;;7.82;7.03;;;23.40;99.90;;;;;;6208673;28;83983;-64
2022/10/04 00:46:27;;;;;;;7.30;6.60;;;23.40;99.90;;;;;;6208583;28;84069;-65
2022/10/04 00:49:35;;;;;;;6.68;6.07;;;23.40;99.90;;;;;;6209427;28;85262;-64
2022/10/04 00:52:44;;;;;;;7.70;7.00;;;23.40;99.90;;;;;;6210756;28;84031;-64
2022/10/04 00:55:51;;;;;;;7.50;6.75;;;23.40;99.90;;;;;;6198110;28;83300;-65
2022/10/04 00:59:27;;;;;;;7.28;6.57;;;23.40;99.90;;;;;;6207223;28;84048;-65
2022/10/04 01:02:35;;;;;;;7.97;7.18;;;23.40;99.90;;;;;;6204612;28;85078;-65
2022/10/04 01:05:41;;;;;;;7.38;6.68;;;23.30;99.90;;;;;;6211155;28;82902;-65
2022/10/04 01:08:48;;;;;;;7.30;6.60;;;23.40;99.90;;;;;;6201683;28;84616;-65
2022/10/04 01:11:59;;;;;;;7.72;6.93;;;23.40;99.90;;;;;;6206546;28;83353;-65
2022/10/04 01:15:07;;;;;;;7.90;7.10;;;23.40;99.90;;;;;;6197117;28;84334;-65
2022/10/04 01:18:14;;;;;;;7.70;6.90;;;23.40;99.90;;;;;;6209837;28;83921;-65
2022/10/04 01:21:28;;;;;;;7.70;7.00;;;23.40;99.90;;;;;;6208083;28;84891;-65
2022/10/04 01:24:36;;;;;;;7.60;6.80;;;23.40;99.90;;;;;;6204615;28;82671;-65
2022/10/04 01:27:42;;;;;;;7.18;6.47;;;23.30;99.90;;;;;;6188922;28;83055;-65
2022/10/04 01:30:44;;;;;;;7.60;6.90;;;23.30;99.90;;;;;;6207680;28;84468;-65
2022/10/04 01:33:46;;;;;;;7.50;6.80;;;23.30;99.90;;;;;;6198313;28;83995;-65
2022/10/04 01:36:51;;;;;;;7.45;6.72;;;23.30;99.90;;;;;;6199425;28;84131;-64
2022/10/04 01:39:54;;;;;;;7.72;6.93;;;23.30;99.90;;;;;;6209395;28;83991;-65
2022/10/04 01:43:01;;;;;;;7.60;6.88;;;23.30;99.90;;;;;;6210926;28;83271;-65
2022/10/04 01:46:08;;;;;;;7.40;6.70;;;23.30;99.90;;;;;;6211069;28;84075;-64
2022/10/04 01:49:15;;;;;;;7.10;6.40;;;23.30;99.90;;;;;;6209346;28;84039;-65
2022/10/04 01:52:22;;;;;;;7.72;6.93;;;23.30;99.90;;;;;;6208929;28;84939;-65
2022/10/04 01:55:29;;;;;;;7.53;6.82;;;23.30;99.90;;;;;;6208336;28;83978;-65
2022/10/04 01:58:39;;;;;;;7.80;6.97;;;23.30;99.90;;;;;;6209002;28;83158;-65
2022/10/04 02:01:47;;;;;;;7.70;7.00;;;23.30;99.90;;;;;;6207281;28;82799;-65
2022/10/04 02:04:53;;;;;;;7.68;6.88;;;23.30;99.90;;;;;;6206106;28;84511;-65
2022/10/04 02:07:57;;;;;;;8.05;7.25;;;23.30;99.90;;;;;;6207035;28;84301;-65
2022/10/04 02:11:03;;;;;;;8.38;7.53;;;23.30;99.90;;;;;;6209058;28;83960;-65
2022/10/04 02:14:14;;;;;;;7.60;6.80;;;23.20;99.90;;;;;;6210550;28;83249;-65
2022/10/04 02:17:17;;;;;;;7.97;7.22;;;23.20;99.90;;;;;;6204965;28;84153;-65
2022/10/04 02:20:23;;;;;;;7.60;6.80;;;23.20;99.90;;;;;;6210605;28;83951;-65
2022/10/04 02:23:26;;;;;;;8.27;7.43;;;23.30;99.90;;;;;;6194811;28;85039;-65
2022/10/04 02:26:30;;;;;;;7.70;6.90;;;23.20;99.90;;;;;;6195551;28;84010;-65
2022/10/04 02:29:32;;;;;;;7.78;7.07;;;23.30;99.90;;;;;;6200741;28;84413;-63
2022/10/04 02:35:57;;;;;;;7.72;6.97;;;23.20;99.90;;;;;;6200615;28;83736;-63
2022/10/04 02:39:03;;;;;;;7.63;6.93;;;23.20;99.90;;;;;;6209976;28;84064;-64
2022/10/04 02:42:14;;;;;;;8.57;7.10;;;23.30;99.90;;;;;;6208202;28;83801;-63
2022/10/04 02:45:24;;;;;;;7.32;6.68;;;23.20;99.90;;;;;;6200673;28;83597;-64
2022/10/04 02:48:36;;;;;;;8.48;7.63;;;23.20;99.90;;;;;;6192175;28;84263;-63
2022/10/04 02:51:44;;;;;;;8.32;7.53;;;23.20;99.90;;;;;;6198299;28;84146;-63
2022/10/04 02:54:52;;;;;;;7.93;7.13;;;23.20;99.90;;;;;;6198550;28;85013;-63
2022/10/04 02:57:57;;;;;;;7.35;6.65;;;23.20;99.90;;;;;;6206446;28;84178;-63
2022/10/04 03:01:00;;;;;;;7.75;7.00;;;23.10;99.90;;;;;;6204044;28;82201;-63
2022/10/04 03:04:03;;;;;;;8.13;7.32;;;23.10;99.90;;;;;;6203341;28;82208;-63
2022/10/04 03:07:08;;;;;;;7.30;6.60;;;23.10;99.90;;;;;;6207138;28;82912;-64
2022/10/04 03:10:14;;;;;;;7.47;6.78;;;23.10;99.90;;;;;;6206782;28;83512;-63
2022/10/04 03:13:20;;;;;;;8.15;7.35;;;23.20;99.90;;;;;;6208833;28;84870;-63
2022/10/04 03:16:23;;;;;;;7.50;6.80;;;23.20;99.90;;;;;;6195128;28;83518;-63
2022/10/04 03:19:27;;;;;;;7.95;7.18;;;23.20;99.90;;;;;;6206890;28;84032;-63
2022/10/04 03:22:29;;;;;;;7.78;6.97;;;23.10;99.90;;;;;;6208206;28;83025;-63
2022/10/04 03:25:45;;;;;;;8.38;7.55;;;23.10;99.90;;;;;;6207957;28;85054;-63
2022/10/04 03:28:49;;;;;;;8.05;7.25;;;23.10;99.90;;;;;;6205714;28;84016;-63
2022/10/04 03:31:55;;;;;;;7.95;7.15;;;23.10;99.90;;;;;;6208015;28;84087;-63
2022/10/04 03:34:58;;;;;;;7.30;6.60;;;23.10;99.90;;;;;;6196806;28;84027;-63
2022/10/04 03:38:05;;;;;;;7.95;7.15;;;23.10;99.90;;;;;;6203585;28;84522;-63
2022/10/04 03:41:10;;;;;;;7.85;7.05;;;23.10;99.90;;;;;;6199442;28;83382;-63
2022/10/04 03:44:16;;;;;;;7.40;6.70;;;23.10;99.90;;;;;;6208671;28;83960;-63
2022/10/04 03:47:22;;;;;;;7.43;6.72;;;23.10;99.90;;;;;;6204313;28;82510;-63
2022/10/04 03:50:26;;;;;;;7.72;6.93;;;23.20;99.90;;;;;;6189157;28;84064;-63
2022/10/04 03:53:34;;;;;;;7.30;6.60;;;23.20;99.90;;;;;;6207909;28;84158;-63
2022/10/04 03:56:37;;;;;;;7.25;6.60;;;23.20;99.90;;;;;;6204252;28;84435;-63
2022/10/04 03:59:42;;;;;;;7.20;6.50;;;23.20;99.90;;;;;;6199192;28;84052;-63
2022/10/04 04:02:48;;;;;;;7.30;6.60;;;23.30;99.90;;;;;;6194095;28;84005;-63
2022/10/04 04:05:54;;;;;;;6.57;5.97;;;23.30;99.90;;;;;;6210910;28;84011;-63
2022/10/04 04:08:58;;;;;;;7.07;6.38;;;23.30;99.90;;;;;;6206150;28;82094;-63
2022/10/04 04:12:04;;;;;;;7.05;6.35;;;23.30;99.90;;;;;;6203760;28;84036;-63
2022/10/04 04:15:10;;;;;;;6.75;6.15;;;23.30;99.90;;;;;;6187847;28;83974;-63
2022/10/04 04:18:16;;;;;;;7.05;6.35;;;23.40;99.90;;;;;;6206988;28;82203;-63
2022/10/04 04:21:21;;;;;;;6.80;6.10;;;23.40;99.90;;;;;;6198048;28;84010;-63
2022/10/04 04:24:27;;;;;;;6.88;6.28;;;23.40;99.90;;;;;;6205655;28;83028;-63
2022/10/04 04:27:33;;;;;;;8.15;6.32;;;23.40;99.90;;;;;;6195864;28;85077;-63
2022/10/04 04:30:39;;;;;;;7.00;6.30;;;23.50;99.90;;;;;;6189199;28;83978;-63
2022/10/04 04:33:45;;;;;;;6.80;6.10;;;23.50;99.90;;;;;;6189856;28;84408;-63
2022/10/04 04:36:47;;;;;;;7.03;6.22;;;23.50;99.90;;;;;;6211065;28;83861;-63
2022/10/04 04:39:53;;;;;;;6.65;5.95;;;23.50;99.90;;;;;;6208920;28;84001;-63
2022/10/04 04:42:58;;;;;;;6.80;6.07;;;23.50;99.90;;;;;;6210025;28;84020;-63
2022/10/04 04:46:03;;;;;;;6.95;6.10;;;23.40;99.90;;;;;;6199700;28;82841;-63
2022/10/04 04:49:06;;;;;;;7.40;6.28;;;23.40;99.90;;;;;;6206009;28;83317;-63
2022/10/04 04:52:16;;;;;;;6.72;6.05;;;23.40;99.90;;;;;;6190197;28;84013;-63
2022/10/04 04:55:21;;;;;;;6.80;6.10;;;23.40;99.90;;;;;;6205429;28;84083;-63
2022/10/04 04:58:26;;;;;;;7.53;6.35;;;23.40;99.90;;;;;;6197670;28;85118;-63
2022/10/04 05:01:34;;;;;;;6.68;5.68;;;23.40;99.90;;;;;;6205201;28;84009;-63
2022/10/04 05:04:36;;;;;;;7.40;6.13;;;23.40;99.90;;;;;;6209552;28;84011;-63
2022/10/04 05:07:38;;;;;;;6.30;5.70;;;23.40;99.90;;;;;;6199819;28;84032;-63
2022/10/04 05:10:42;;;;;;;6.35;5.75;;;23.40;99.90;;;;;;6208719;28;84111;-63
2022/10/04 05:13:50;;;;;;;6.13;5.53;;;23.40;99.90;;;;;;6208817;28;84041;-63
2022/10/04 05:16:55;;;;;;;6.50;5.80;;;23.40;99.90;;;;;;6196873;28;83219;-63
2022/10/04 05:20:01;;;;;;;6.13;5.53;;;23.40;99.90;;;;;;6199574;28;82771;-63
2022/10/04 05:23:03;;;;;;;6.70;6.00;;;23.50;99.90;;;;;;6199533;28;84108;-63
2022/10/04 05:26:11;;;;;;;6.07;5.47;;;23.50;99.90;;;;;;6211300;28;84149;-63
2022/10/04 05:29:18;;;;;;;6.80;5.93;;;23.50;99.90;;;;;;6209615;28;85429;-63
2022/10/04 05:32:33;;;;;;;5.90;5.35;;;23.50;99.90;;;;;;6198713;28;84726;-63
2022/10/04 05:36:02;;;;;;;6.13;5.50;;;23.50;99.90;;;;;;6185987;28;84325;-63
2022/10/04 05:39:14;;;;;;;6.20;5.28;;;23.50;99.90;;;;;;6211172;28;84016;-63
2022/10/04 05:42:22;;;;;;;6.60;5.93;;;23.50;99.90;;;;;;6209005;28;83978;-63
2022/10/04 05:45:27;;;;;;;5.90;5.30;;;23.50;99.90;;;;;;6196080;28;84350;-64
2022/10/04 05:48:30;;;;;;;5.65;5.15;;;23.60;99.90;;;;;;6206683;28;84209;-63
2022/10/04 05:51:37;;;;;;;5.85;5.20;;;23.50;99.90;;;;;;6201100;28;82542;-63
2022/10/04 05:54:39;;;;;;;6.07;5.47;;;23.50;99.90;;;;;;6209735;28;84347;-63
2022/10/04 05:57:50;;;;;;;5.88;5.32;;;23.50;99.90;;;;;;6200056;28;84366;-63
2022/10/04 06:01:18;;;;;;;6.72;5.93;;;23.50;99.90;;;;;;6199132;28;86540;-63
2022/10/04 06:04:30;;;;;;;6.10;5.40;;;23.60;99.90;;;;;;6203721;28;82997;-63
2022/10/04 06:07:38;;;;;;;5.88;5.35;;;23.60;99.90;;;;;;6199026;28;84012;-63
2022/10/04 06:10:53;;;;;;;5.78;5.18;;;23.60;99.90;;;;;;6205097;28;82969;-63
2022/10/04 06:14:24;;;;;;;5.60;5.05;;;23.60;99.90;;;;;;6206948;28;84383;-63
2022/10/04 06:17:59;;;;;;;5.90;5.30;;;23.60;99.90;;;;;;6209600;28;84081;-63
2022/10/04 06:21:18;;;;;;;5.65;5.15;;;23.60;99.90;;;;;;6197913;28;82942;-63
2022/10/04 06:24:25;;;;;;;5.63;4.88;;;23.60;99.90;;;;;;6204422;28;83318;-63
2022/10/04 06:27:36;;;;;;;5.75;5.15;;;23.60;99.90;;;;;;6188727;28;84327;-63
2022/10/04 06:30:51;;;;;;;5.65;5.15;;;23.60;99.90;;;;;;6210158;28;84105;-63
2022/10/04 06:34:16;;;;;;;5.40;4.90;;;23.60;99.90;;;;;;6208164;28;85225;-63
2022/10/04 06:37:38;;;;;;;5.80;5.20;;;23.60;99.90;;;;;;6195998;28;83992;-63
2022/10/04 06:41:22;;;;;;;5.35;4.85;;;23.60;99.90;;;;;;6185028;28;84006;-63
2022/10/04 06:44:38;;;;;;;5.38;4.78;;;23.60;99.90;;;;;;6190051;28;83708;-63
2022/10/04 06:48:00;;;;;;;5.80;5.20;;;23.60;99.90;;;;;;6198407;28;84043;-63
2022/10/04 06:51:12;;;;;;;5.32;4.82;;;23.60;99.90;;;;;;6184909;28;84059;-63
2022/10/04 06:54:34;;;;;;;5.10;4.60;;;23.60;99.90;;;;;;6206693;28;84083;-63
2022/10/04 06:57:53;;;;;;;5.45;4.95;;;23.60;99.90;;;;;;6209831;28;82545;-63
2022/10/04 07:01:01;;;;;;;5.72;4.80;;;23.60;99.90;;;;;;6197856;28;84052;-63
2022/10/04 07:04:12;;;;;;;5.20;4.70;;;23.60;99.90;;;;;;6205649;28;84006;-63
2022/10/04 07:07:25;;;;;;;5.18;4.68;;;23.70;99.90;;;;;;6198472;28;85002;-63
2022/10/04 07:10:35;;;;;;;5.18;4.60;;;23.70;99.90;;;;;;6206644;28;83054;-63
2022/10/04 07:13:46;;;;;;;5.10;4.60;;;23.70;99.90;;;;;;6187468;28;83951;-63
2022/10/04 07:16:53;;;;;;;4.93;4.45;;;23.60;99.90;;;;;;6205192;28;84090;-63
2022/10/04 07:19:57;;;;;;;4.85;4.40;;;23.70;99.90;;;;;;6200748;28;84268;-63
2022/10/04 07:23:05;;;;;;;5.07;4.07;;;23.70;99.90;;;;;;6196675;28;84022;-63
2022/10/04 07:26:20;;;;;;;5.05;4.55;;;23.70;99.90;;;;;;6202139;28;84060;-63
2022/10/04 07:29:26;;;;;;;5.15;4.50;;;23.70;99.90;;;;;;6208891;28;83310;-63
2022/10/04 07:32:32;;;;;;;5.00;4.50;;;23.70;99.90;;;;;;6191039;28;83985;-64
2022/10/04 07:35:40;;;;;;;5.68;4.70;;;23.70;99.90;;;;;;6191969;28;84283;-63
2022/10/04 07:38:47;;;;;;;4.82;4.32;;;23.70;99.90;;;;;;6207460;28;83865;-63
2022/10/04 07:41:54;;;;;;;4.95;4.45;;;23.70;99.90;;;;;;6205539;28;83936;-63
2022/10/04 07:45:08;;;;;;;4.45;4.05;;;23.70;99.90;;;;;;6200763;28;84122;-63
2022/10/04 07:48:15;;;;;;;4.90;4.35;;;23.70;99.90;;;;;;6201501;28;82932;-63
2022/10/04 07:51:27;;;;;;;4.45;4.05;;;23.70;99.90;;;;;;6188542;28;84025;-63
2022/10/04 07:54:39;;;;;;;5.13;4.60;;;23.70;99.90;;;;;;6212171;28;84062;-63
2022/10/04 07:57:49;;;;;;;4.80;4.30;;;23.70;99.90;;;;;;6200920;28;84131;-63
2022/10/04 08:00:58;;;;;;;4.68;4.28;;;23.70;99.90;;;;;;6199592;28;83689;-63
2022/10/04 08:04:29;;;;;;;4.40;4.00;;;23.70;99.90;;;;;;6208532;28;83007;-63
2022/10/04 08:07:48;;;;;;;5.13;4.30;;;23.70;99.90;;;;;;6212113;28;84366;-63
2022/10/04 08:11:02;;;;;;;4.40;4.00;;;23.70;99.90;;;;;;6206159;28;83860;-63
2022/10/04 08:14:17;;;;;;;4.70;4.22;;;23.70;99.90;;;;;;6211639;28;83974;-64
2022/10/04 08:17:33;;;;;;;5.03;4.13;;;23.70;99.90;;;;;;6211990;28;84195;-63
2022/10/04 08:20:44;;;;;;;4.60;4.20;;;23.70;99.90;;;;;;6211768;28;83215;-63
2022/10/04 08:24:00;;;;;;;5.20;4.20;;;23.70;99.90;;;;;;6188723;28;84044;-63
2022/10/04 08:27:17;;;;;;;4.38;3.97;;;23.70;99.90;;;;;;6200366;28;83238;-63
2022/10/04 08:30:20;;;;;;;4.30;3.90;;;23.70;99.90;;;;;;6200775;28;84022;-63
2022/10/04 08:33:37;;;;;;;4.70;4.13;;;23.70;99.90;;;;;;6213205;28;82191;-63
2022/10/04 08:36:54;;;;;;;4.35;3.95;;;23.70;99.90;;;;;;6200376;28;84092;-63
2022/10/04 08:40:23;;;;;;;4.57;4.07;;;23.70;99.90;;;;;;6211541;28;84454;-63
2022/10/04 08:44:15;;;;;;;4.40;3.95;;;23.70;99.90;;;;;;6200289;28;83677;-63
2022/10/04 08:48:01;;;;;;;4.50;4.10;;;23.70;99.90;;;;;;6165881;28;84069;-63
2022/10/04 08:51:46;;;;;;;4.00;3.60;;;23.70;99.90;;;;;;6177094;28;84361;-63
2022/10/04 08:55:21;;;;;;;4.63;4.07;;;23.70;99.90;;;;;;6200872;28;82771;-63
2022/10/04 08:59:05;;;;;;;4.60;4.20;;;23.70;99.90;;;;;;6192064;28;84066;-63
2022/10/04 09:02:38;;;;;;;4.03;3.65;;;23.70;99.90;;;;;;6210705;28;83110;-63
2022/10/04 09:06:10;;;;;;;3.90;3.53;;;23.70;99.90;;;;;;6206944;28;84069;-63
2022/10/04 09:09:47;;;;;;;3.85;3.50;;;23.70;99.90;;;;;;6200233;28;82710;-63
2022/10/04 09:13:03;;;;;;;3.92;3.53;;;23.70;99.90;;;;;;6200864;28;84069;-63
2022/10/04 09:16:18;;;;;;;4.05;3.65;;;23.70;99.90;;;;;;6196570;28;83800;-63
2022/10/04 09:19:23;;;;;;;4.00;3.60;;;23.70;99.90;;;;;;6208441;28;83903;-63
2022/10/04 09:22:46;;;;;;;4.20;3.67;;;23.70;99.90;;;;;;6209358;28;84395;-63
2022/10/04 09:26:05;;;;;;;4.35;3.95;;;23.70;99.90;;;;;;6194937;28;82706;-63
2022/10/04 09:29:27;;;;;;;4.00;3.60;;;23.70;99.90;;;;;;6201488;28;84044;-62
2022/10/04 09:32:50;;;;;;;3.63;3.33;;;23.80;99.90;;;;;;6210414;28;82930;-63
2022/10/04 09:36:26;;;;;;;4.05;3.53;;;23.70;99.90;;;;;;6197228;28;84076;-63
2022/10/04 09:39:57;;;;;;;4.15;3.75;;;23.70;99.90;;;;;;6209141;28;83027;-63
2022/10/04 09:43:17;;;;;;;3.65;3.30;;;23.70;99.90;;;;;;6199351;28;83117;-63
2022/10/04 09:46:38;;;;;;;4.00;3.58;;;23.80;99.90;;;;;;6198843;28;82979;-63
2022/10/04 09:50:12;;;;;;;4.00;3.60;;;23.70;99.90;;;;;;6208923;28;84102;-63
2022/10/04 09:53:43;;;;;;;4.18;3.35;;;23.70;99.90;;;;;;6199862;28;85158;-63
2022/10/04 09:57:15;;;;;;;3.67;3.38;;;23.80;99.90;;;;;;6206380;28;83889;-63
2022/10/04 10:00:24;;;;;;;4.00;3.60;;;23.80;99.90;;;;;;6189824;28;83536;-63
2022/10/04 10:03:54;;;;;;;3.70;3.40;;;23.80;99.90;;;;;;6209276;28;82963;-62
2022/10/04 10:07:18;;;;;;;3.50;3.20;;;23.80;99.90;;;;;;6203541;28;83924;-63
2022/10/04 10:14:35;;;;;;;3.50;3.20;;;23.70;99.90;;;;;;6201627;28;82481;-63
2022/10/04 10:17:43;;;;;;;3.80;3.40;;;23.80;99.90;;;;;;6188666;28;83711;-63
2022/10/04 10:21:02;;;;;;;3.88;3.50;;;23.80;99.90;;;;;;6197018;28;83931;-63
2022/10/04 10:24:24;;;;;;;3.50;3.20;;;23.70;99.90;;;;;;6205806;28;83241;-63
2022/10/04 10:27:46;;;;;;;3.58;3.28;;;23.70;99.90;;;;;;6198852;28;84981;-63
2022/10/04 10:31:09;;;;;;;3.60;3.30;;;23.70;99.90;;;;;;6192805;28;83984;-63
2022/10/04 10:34:35;;;;;;;3.95;3.38;;;23.80;99.90;;;;;;6197487;28;82901;-63
2022/10/04 10:37:50;;;;;;;3.60;3.30;;;23.80;99.90;;;;;;6202806;28;84266;-63
2022/10/04 10:41:19;;;;;;;3.60;3.30;;;23.80;99.90;;;;;;6201886;28;84009;-63
2022/10/04 10:44:40;;;;;;;3.42;3.10;;;23.80;99.90;;;;;;6207885;28;84023;-63
2022/10/04 10:47:52;;;;;;;3.30;3.00;;;23.80;99.90;;;;;;6209247;28;84069;-63
2022/10/04 10:51:02;;;;;;;3.30;3.00;;;23.80;99.90;;;;;;6196215;28;83361;-63
2022/10/04 10:54:41;;;;;;;3.30;3.00;;;23.80;99.90;;;;;;6207712;28;83969;-63
2022/10/04 10:58:05;;;;;;;3.42;3.13;;;23.80;99.90;;;;;;6209046;28;84000;-63
2022/10/04 11:01:45;;;;;;;3.63;3.33;;;23.80;99.90;;;;;;6185441;28;85092;-63
2022/10/04 11:05:09;;;;;;;3.60;3.22;;;23.80;99.90;;;;;;6183384;28;83044;-63
2022/10/04 11:08:47;;;;;;;3.30;3.00;;;23.80;99.90;;;;;;6186209;28;84032;-63
2022/10/04 11:12:22;;;;;;;3.40;3.10;;;23.80;99.90;;;;;;6199554;28;84082;-63
2022/10/04 11:15:40;;;;;;;3.08;2.78;;;23.80;99.90;;;;;;6212164;28;84441;-63
2022/10/04 11:19:28;;;;;;;3.03;2.72;;;23.80;99.90;;;;;;6206271;28;83998;-63
2022/10/04 11:23:03;;;;;;;3.63;3.08;;;23.80;99.90;;;;;;6200884;28;84100;-63
2022/10/04 11:26:46;;;;;;;3.15;2.78;;;23.80;99.90;;;;;;6185186;28;82109;-63
2022/10/04 11:30:03;;;;;;;3.35;3.05;;;23.80;99.90;;;;;;6199483;28;84115;-63
2022/10/04 11:33:36;;;;;;;3.17;2.75;;;23.80;99.90;;;;;;6198206;28;84113;-64
2022/10/04 11:36:52;;;;;;;3.80;2.90;;;23.80;99.90;;;;;;6188618;28;83839;-63
2022/10/04 11:40:26;;;;;;;3.00;2.70;;;23.80;99.90;;;;;;6201324;28;84018;-63
2022/10/04 11:44:01;;;;;;;3.20;2.90;;;23.80;99.90;;;;;;6189220;28;84066;-63
2022/10/04 11:47:12;;;;;;;3.20;2.50;;;23.80;99.90;;;;;;6204529;28;82933;-63
2022/10/04 11:50:38;;;;;;;3.10;2.80;;;23.80;99.90;;;;;;6211851;28;83057;-63
2022/10/04 11:54:19;;;;;;;3.03;2.72;;;23.80;99.90;;;;;;6208751;28;83985;-63
2022/10/04 11:57:34;;;;;;;2.88;2.67;;;23.80;99.90;;;;;;6211890;28;83974;-63
2022/10/04 12:01:06;;;;;;;3.28;2.97;;;23.80;99.90;;;;;;6191214;28;83324;-63
2022/10/04 12:04:31;;;;;;;2.85;2.63;;;23.80;99.90;;;;;;6210773;28;84046;-63
2022/10/04 12:07:49;;;;;;;2.72;2.53;;;23.80;99.90;;;;;;6188004;28;84000;-63
2022/10/04 12:11:24;;;;;;;2.92;2.72;;;23.80;99.90;;;;;;6206807;28;84908;-63
2022/10/04 12:14:42;;;;;;;2.70;2.50;;;23.80;99.90;;;;;;6202562;28;83804;-63
2022/10/04 12:18:18;;;;;;;3.00;2.70;;;23.80;99.90;;;;;;6210408;28;84122;-63
2022/10/04 12:21:49;;;;;;;3.20;2.90;;;23.80;99.90;;;;;;6199937;28;84545;-63
2022/10/04 12:25:16;;;;;;;3.17;2.75;;;23.90;99.90;;;;;;6143319;28;83929;-63
2022/10/04 12:28:39;;;;;;;2.75;2.50;;;23.80;99.90;;;;;;6209387;28;82918;-63
2022/10/04 12:31:45;;;;;;;2.95;2.75;;;23.80;99.90;;;;;;6188161;28;83988;-63
2022/10/04 12:35:00;;;;;;;2.92;2.63;;;23.80;99.90;;;;;;6196267;28;83465;-63
2022/10/04 12:38:23;;;;;;;2.70;2.50;;;23.80;99.90;;;;;;6210398;28;85394;-63
2022/10/04 12:41:35;;;;;;;2.75;2.47;;;23.80;99.90;;;;;;6194189;28;84089;-63
2022/10/04 12:44:55;;;;;;;2.60;2.40;;;23.80;99.90;;;;;;6199305;28;85059;-63
2022/10/04 12:48:13;;;;;;;2.92;2.60;;;23.80;99.90;;;;;;6198870;28;84272;-63
2022/10/04 12:51:36;;;;;;;2.53;2.33;;;23.80;99.90;;;;;;6199572;28;84209;-63
2022/10/04 12:54:42;;;;;;;2.80;2.47;;;23.80;99.90;;;;;;6211217;28;83966;-63
2022/10/04 12:57:49;;;;;;;2.45;2.25;;;23.80;99.90;;;;;;6197798;28;83973;-63
2022/10/04 13:00:53;;;;;;;2.60;2.40;;;23.80;99.90;;;;;;6208208;28;83938;-63
2022/10/04 13:04:11;;;;;;;2.58;2.30;;;23.80;99.90;;;;;;6208954;28;84135;-63
2022/10/04 13:07:44;;;;;;;2.58;2.35;;;23.80;99.90;;;;;;6197760;28;82297;-63
2022/10/04 13:11:21;;;;;;;2.60;2.40;;;23.80;99.90;;;;;;6210449;28;86576;-63
2022/10/04 13:14:55;;;;;;;2.40;2.20;;;23.80;99.90;;;;;;6210895;28;84023;-63
2022/10/04 13:18:09;;;;;;;2.30;2.10;;;23.80;99.90;;;;;;6199370;28;85029;-63
2022/10/04 13:21:16;;;;;;;2.50;2.30;;;23.80;99.90;;;;;;6199605;28;84117;-63
2022/10/04 13:24:28;;;;;;;2.45;2.25;;;23.80;99.90;;;;;;6192821;28;83075;-63
2022/10/04 13:27:39;;;;;;;2.40;2.20;;;23.80;99.90;;;;;;6199055;28;84216;-63
2022/10/04 13:30:47;;;;;;;2.30;2.10;;;23.80;99.90;;;;;;6193273;28;82908;-63
2022/10/04 13:33:58;;;;;;;2.20;2.00;;;23.80;99.90;;;;;;6198821;28;84281;-63
2022/10/04 13:37:24;;;;;;;2.90;2.55;;;23.80;99.90;;;;;;6196173;28;89153;-63
2022/10/04 13:40:44;;;;;;;2.42;2.22;;;23.80;99.90;;;;;;6199434;28;88428;-63
2022/10/04 13:44:19;;;;;;;2.20;2.00;;;23.80;99.90;;;;;;6191409;28;89068;-63
2022/10/04 13:47:39;;;;;;;2.42;2.20;;;23.80;99.90;;;;;;6193260;28;89212;-63
2022/10/04 13:50:55;;;;;;;2.28;2.08;;;23.80;99.90;;;;;;6189826;28;90065;-63
2022/10/04 13:57:42;;;;;;;2.28;2.08;;;23.80;99.90;;;;;;6183533;28;87717;-63
2022/10/04 14:01:06;;;;;;;2.20;2.00;;;23.80;99.90;;;;;;6182607;28;89559;-64
2022/10/04 14:04:34;;;;;;;2.38;2.17;;;23.80;99.90;;;;;;6191619;28;89453;-63
2022/10/04 14:08:09;;;;;;;2.00;1.90;;;23.80;99.90;;;;;;6194511;28;89784;-63
2022/10/04 14:11:52;;;;;;;2.10;1.90;;;23.80;99.90;;;;;;6204063;28;87895;-64
2022/10/04 14:15:41;;;;;;;2.47;2.28;;;23.80;99.90;;;;;;6141622;28;87629;-63
2022/10/04 14:19:26;;;;;;;2.30;2.10;;;23.80;99.90;;;;;;6170636;28;89066;-63
2022/10/04 14:23:13;;;;;;;2.67;2.40;;;23.70;99.90;;;;;;6194731;28;89083;-63
2022/10/04 14:26:51;;;;;;;2.30;2.10;;;23.70;99.90;;;;;;6165129;28;90705;-64
2022/10/04 14:30:16;;;;;;;2.17;1.98;;;23.80;99.90;;;;;;6181710;28;89031;-63
2022/10/04 14:33:46;;;;;;;2.30;2.10;;;23.80;99.90;;;;;;6194797;28;88082;-64
2022/10/04 14:37:28;;;;;;;2.30;2.10;;;23.80;99.90;;;;;;6194885;28;89156;-63
2022/10/04 14:40:49;;;;;;;2.40;2.20;;;23.80;99.90;;;;;;6191501;28;87916;-64
2022/10/04 14:44:30;;;;;;;2.20;2.00;;;23.70;99.90;;;;;;6187821;28;89107;-63
2022/10/04 14:47:58;;;;;;;2.08;1.88;;;23.80;99.90;;;;;;6201697;28;89343;-63
2022/10/04 14:51:19;;;;;;;2.13;1.80;;;23.80;99.90;;;;;;6195222;28;88300;-63
2022/10/04 14:54:40;;;;;;;2.03;1.83;;;23.70;99.90;;;;;;6200933;28;89016;-64
2022/10/04 14:57:58;;;;;;;2.10;1.83;;;23.80;99.90;;;;;;6205958;28;89680;-63
2022/10/04 15:01:20;;;;;;;2.03;1.83;;;23.70;99.90;;;;;;6204381;28;88929;-64
2022/10/04 15:04:33;;;;;;;2.00;1.90;;;23.70;99.90;;;;;;6193781;28;89020;-63
2022/10/04 15:07:38;;;;;;;1.95;1.75;;;23.70;99.90;;;;;;6206818;28;89132;-63
2022/10/04 15:10:50;;;;;;;1.80;1.70;;;23.80;99.90;;;;;;6199683;28;87977;-63
2022/10/04 15:13:54;;;;;;;2.05;1.85;;;23.70;99.90;;;;;;6188010;28;89096;-63
2022/10/04 15:16:59;;;;;;;1.77;1.67;;;23.80;99.90;;;;;;6181534;28;89063;-63
2022/10/04 15:20:08;;;;;;;2.00;1.80;;;23.70;99.90;;;;;;6196412;28;89511;-63
2022/10/04 15:23:16;;;;;;;2.00;1.80;;;23.70;99.90;;;;;;6191874;28;88567;-63
2022/10/04 15:26:49;;;;;;;2.00;1.83;;;23.70;99.90;;;;;;6203861;28;89209;-63
2022/10/04 15:30:02;;;;;;;2.20;2.00;;;23.70;99.90;;;;;;6178549;28;89087;-63
2022/10/04 15:33:35;;;;;;;1.92;1.75;;;23.70;99.90;;;;;;6192678;28;90197;-64
2022/10/04 15:37:03;;;;;;;2.00;1.80;;;23.80;99.90;;;;;;6187613;28;88300;-63
2022/10/04 15:40:34;;;;;;;2.03;1.83;;;23.70;99.90;;;;;;6204809;28;89168;-64
2022/10/04 15:43:43;;;;;;;1.95;1.83;;;23.70;99.90;;;;;;6194087;28;89150;-63
2022/10/04 15:46:51;;;;;;;2.97;1.75;;;23.70;99.90;;;;;;6202865;28;87976;-63
2022/10/04 15:50:11;;;;;;;2.13;1.92;;;23.70;99.90;;;;;;6202403;28;88289;-63
2022/10/04 15:53:27;;;;;;;2.05;1.88;;;23.70;99.90;;;;;;6194005;28;89144;-63
2022/10/04 15:56:42;;;;;;;2.10;1.90;;;23.70;99.90;;;;;;6196067;28;88305;-64
2022/10/04 15:59:52;;;;;;;1.80;1.70;;;23.70;99.90;;;;;;6204726;28;88984;-64
2022/10/04 16:03:17;;;;;;;1.73;1.63;;;23.70;99.90;;;;;;6198026;28;89090;-63
2022/10/04 16:06:23;;;;;;;2.00;1.80;;;23.70;99.90;;;;;;6184041;28;90444;-63
2022/10/04 16:09:37;;;;;;;1.80;1.70;;;23.70;99.90;;;;;;6192634;28;89314;-64
2022/10/04 16:13:06;;;;;;;1.70;1.60;;;23.70;99.90;;;;;;6208459;28;89069;-63
2022/10/04 16:16:31;;;;;;;1.88;1.77;;;23.70;99.90;;;;;;6206926;28;89099;-63
2022/10/04 16:20:06;;;;;;;1.70;1.60;;;23.70;99.90;;;;;;6188073;28;89064;-64
2022/10/04 16:23:30;;;;;;;1.80;1.70;;;23.70;99.90;;;;;;6197276;28;89170;-63
2022/10/04 16:27:13;;;;;;;2.17;1.83;;;23.80;99.90;;;;;;6197045;28;89805;-64
2022/10/04 16:30:25;;;;;;;1.80;1.70;;;23.70;99.90;;;;;;6191241;28;88251;-63
2022/10/04 16:33:37;;;;;;;1.80;1.70;;;23.70;99.90;;;;;;6202410;28;89092;-63
2022/10/04 16:36:47;;;;;;;1.80;1.70;;;23.70;99.90;;;;;;6203335;28;89029;-63
2022/10/04 16:39:59;;;;;;;1.88;1.73;;;23.70;99.90;;;;;;6204154;28;90037;-63
2022/10/04 16:43:06;;;;;;;1.63;1.52;;;23.70;99.90;;;;;;6195353;28;89746;-63
2022/10/04 16:46:18;;;;;;;2.88;1.70;;;23.70;99.90;;;;;;6196581;28;89345;-63
2022/10/04 16:49:28;;;;;;;1.77;1.52;;;23.70;99.90;;;;;;6201321;28;89346;-63
2022/10/04 16:52:48;;;;;;;1.48;1.38;;;23.70;99.90;;;;;;6208316;28;89102;-63
2022/10/04 16:55:53;;;;;;;1.60;1.50;;;23.70;99.90;;;;;;6201735;28;88220;-64
2022/10/04 16:59:00;;;;;;;1.70;1.60;;;23.70;99.90;;;;;;6204991;28;88014;-63
2022/10/04 17:02:36;;;;;;;1.67;1.58;;;23.70;99.90;;;;;;6196244;28;88776;-63
2022/10/04 17:06:04;;;;;;;1.77;1.48;;;23.70;99.90;;;;;;6196252;28;89059;-63
2022/10/04 17:09:17;;;;;;;1.52;1.42;;;23.70;99.90;;;;;;6179186;28;90849;-63
2022/10/04 17:12:26;;;;;;;1.60;1.50;;;23.70;99.90;;;;;;6206430;28;90139;-63